Time;durP1;ratioP1;P1;durP2;ratioP2;P2;SDS_P1;SDS_P2;PMS_P1;PMS_P2;Temp;Humidity;BMP_temperature;BMP_pressure;BME280_temperature;BME280_humidity;BME280_pressure;Samples;Min_cycle;Max_cycle;Signal;HPM_P1;HPM_P2
2021/07/07 00:05:48;;;;;;;6.70;1.80;;;16.50;99.90;;;;;;6660402;89;20517;-81
2021/07/07 00:15:48;;;;;;;9.82;2.28;;;16.40;99.90;;;;;;6657116;89;20242;-81
2021/07/07 00:25:49;;;;;;;6.05;1.70;;;16.10;99.90;;;;;;6676867;89;20192;-81
2021/07/07 00:35:50;;;;;;;5.28;1.85;;;16.00;99.90;;;;;;6657575;89;20208;-81
2021/07/07 00:45:50;;;;;;;5.15;1.67;;;15.90;99.90;;;;;;6657842;89;20235;-80
2021/07/07 00:55:52;;;;;;;7.07;2.60;;;15.80;99.90;;;;;;6659263;89;20169;-80
2021/07/07 01:05:53;;;;;;;6.75;1.77;;;15.70;99.90;;;;;;6659329;89;20983;-80
2021/07/07 01:15:56;;;;;;;5.85;1.60;;;15.90;99.90;;;;;;6660890;89;20211;-80
2021/07/07 01:25:58;;;;;;;6.53;1.58;;;16.10;99.90;;;;;;6660843;89;20620;-80
2021/07/07 01:36:00;;;;;;;6.68;1.70;;;16.30;99.90;;;;;;6711000;88;20209;-81
2021/07/07 01:46:00;;;;;;;6.15;2.10;;;16.20;99.90;;;;;;6712651;88;20210;-80
2021/07/07 01:56:01;;;;;;;5.60;1.50;;;16.10;99.90;;;;;;6678145;89;20957;-81
2021/07/07 02:06:02;;;;;;;4.90;1.60;;;16.00;99.90;;;;;;6635908;88;20168;-81
2021/07/07 02:16:04;;;;;;;6.80;1.85;;;15.90;99.90;;;;;;6625367;88;20228;-81
2021/07/07 02:26:05;;;;;;;4.45;1.83;;;15.80;99.90;;;;;;6651764;89;20196;-80
2021/07/07 02:36:05;;;;;;;4.87;1.52;;;15.70;99.90;;;;;;6656588;89;20997;-80
2021/07/07 02:46:06;;;;;;;4.28;1.50;;;15.70;99.90;;;;;;6656417;89;20184;-80
2021/07/07 02:56:07;;;;;;;8.23;2.10;;;15.70;99.90;;;;;;6659306;89;20231;-80
2021/07/07 03:06:08;;;;;;;6.70;1.80;;;15.60;99.90;;;;;;6659034;89;20180;-80
2021/07/07 03:16:08;;;;;;;5.68;1.90;;;15.50;99.90;;;;;;6659303;89;20211;-79
2021/07/07 03:26:09;;;;;;;7.90;2.03;;;15.30;99.90;;;;;;6661059;89;20206;-80
2021/07/07 03:36:09;;;;;;;7.60;2.10;;;15.20;99.90;;;;;;6659741;89;20173;-81
2021/07/07 03:46:10;;;;;;;7.47;2.40;;;15.10;99.90;;;;;;6658905;89;20211;-80
2021/07/07 03:56:10;;;;;;;5.70;2.00;;;14.90;99.90;;;;;;6661086;89;20221;-81
2021/07/07 04:06:11;;;;;;;6.97;2.30;;;15.20;99.90;;;;;;6663108;89;20223;-81
2021/07/07 04:26:15;;;;;;;4.90;2.05;;;15.40;99.90;;;;;;6639230;89;20262;-78
2021/07/07 04:36:15;;;;;;;6.00;2.62;;;15.70;99.90;;;;;;6636502;89;20254;-79
2021/07/07 04:46:17;;;;;;;8.52;2.22;;;15.80;99.90;;;;;;6629817;89;20198;-79
2021/07/07 04:56:17;;;;;;;9.65;2.17;;;16.00;99.90;;;;;;6606587;89;20183;-78
2021/07/07 05:06:18;;;;;;;4.82;2.10;;;16.20;99.90;;;;;;6603350;90;20244;-79
2021/07/07 05:16:19;;;;;;;7.03;1.80;;;16.20;99.90;;;;;;6602370;89;20309;-79
2021/07/07 05:26:20;;;;;;;4.45;2.00;;;16.60;99.90;;;;;;6616930;89;20182;-79
2021/07/07 05:36:20;;;;;;;8.40;1.87;;;16.90;99.90;;;;;;6616188;89;20190;-79
2021/07/07 05:46:21;;;;;;;4.93;1.62;;;17.00;99.90;;;;;;6603642;90;20257;-79
2021/07/07 05:56:22;;;;;;;3.97;1.60;;;17.20;99.90;;;;;;6612007;89;20226;-79
2021/07/07 06:06:22;;;;;;;3.65;1.67;;;17.40;99.90;;;;;;6613438;89;20206;-79
2021/07/07 06:16:23;;;;;;;5.22;1.67;;;17.50;99.90;;;;;;6607822;89;20211;-79
2021/07/07 06:26:28;;;;;;;5.12;1.70;;;17.60;99.90;;;;;;6632135;89;20205;-78
2021/07/07 06:36:28;;;;;;;4.80;2.10;;;17.60;99.90;;;;;;6600565;89;20187;-78
2021/07/07 06:46:30;;;;;;;5.37;1.77;;;17.70;99.90;;;;;;6615611;89;20262;-78
2021/07/07 06:56:31;;;;;;;5.85;2.28;;;17.90;99.90;;;;;;6615868;89;20336;-77
2021/07/07 07:06:31;;;;;;;5.65;1.87;;;18.30;99.90;;;;;;6616058;89;20330;-78
2021/07/07 07:16:33;;;;;;;5.37;1.90;;;18.50;99.90;;;;;;6633613;89;20185;-80
2021/07/07 07:26:34;;;;;;;3.55;1.50;;;19.80;99.90;;;;;;6640183;88;20202;-79
2021/07/07 07:36:34;;;;;;;4.35;1.73;;;20.50;99.90;;;;;;6638015;89;20188;-79
2021/07/07 07:46:35;;;;;;;5.95;1.70;;;20.30;99.90;;;;;;6640419;89;20710;-79
2021/07/07 07:56:36;;;;;;;5.95;1.80;;;21.20;99.90;;;;;;6640398;89;20377;-79
2021/07/07 08:06:36;;;;;;;5.87;1.70;;;21.20;99.90;;;;;;6639234;89;20188;-80
2021/07/07 08:16:38;;;;;;;5.00;1.80;;;21.90;99.90;;;;;;6643552;89;20226;-81
2021/07/07 08:26:39;;;;;;;6.70;1.75;;;22.90;99.90;;;;;;6642205;88;20293;-80
2021/07/07 08:36:59;;;;;;;3.33;1.42;;;23.50;99.90;;;;;;6663005;89;20197;-80
2021/07/07 08:47:02;;;;;;;5.25;1.60;;;24.10;99.90;;;;;;6652659;89;20177;-83
2021/07/07 08:57:07;;;;;;;4.20;1.37;;;24.20;99.90;;;;;;6628806;89;20829;-82
2021/07/07 09:07:09;;;;;;;3.72;1.23;;;24.30;99.90;;;;;;6696647;88;20195;-83
2021/07/07 09:17:15;;;;;;;5.12;1.62;;;25.80;99.90;;;;;;6696731;89;20178;-85
2021/07/07 09:27:17;;;;;;;5.75;1.58;;;24.90;98.40;;;;;;6655714;89;20187;-84
2021/07/07 09:37:24;;;;;;;4.47;1.40;;;23.70;99.70;;;;;;6624631;89;20178;-84
2021/07/07 09:58:26;;;;;;;5.75;1.17;;;24.90;98.50;;;;;;6745244;88;20185;-82
2021/07/07 10:08:28;;;;;;;5.22;1.25;;;24.40;96.40;;;;;;6745674;88;20206;-82
2021/07/07 10:18:29;;;;;;;4.78;1.30;;;23.90;97.40;;;;;;6743613;88;20225;-84
2021/07/07 10:28:31;;;;;;;2.47;1.10;;;25.70;95.00;;;;;;6743859;88;20688;-84
2021/07/07 10:48:34;;;;;;;;;;;26.40;90.40;;;;;;6742056;88;20224;-80
2021/07/07 10:58:37;;;;;;;3.70;1.10;;;26.10;90.30;;;;;;6731091;88;20085;-81
2021/07/07 11:08:40;;;;;;;2.10;1.00;;;26.80;88.70;;;;;;6732568;88;20188;-80
2021/07/07 11:18:42;;;;;;;2.97;1.00;;;26.40;86.30;;;;;;6734103;88;20193;-83
2021/07/07 11:28:42;;;;;;;2.75;0.98;;;26.50;88.10;;;;;;6739140;88;20196;-81
2021/07/07 11:38:43;;;;;;;3.25;0.98;;;25.60;88.20;;;;;;6731345;88;20620;-81
2021/07/07 11:48:46;;;;;;;5.00;1.00;;;26.50;82.80;;;;;;6738030;88;20649;-82
2021/07/07 11:58:49;;;;;;;6.37;1.03;;;26.10;85.00;;;;;;6735610;88;20228;-81
2021/07/07 12:08:53;;;;;;;;;;;26.60;83.00;;;;;;6731972;88;21067;-82
2021/07/07 12:18:57;;;;;;;4.32;1.00;;;27.30;81.90;;;;;;6730781;88;20041;-81
2021/07/07 12:29:00;;;;;;;3.33;1.20;;;27.10;78.80;;;;;;6698270;88;20203;-81
2021/07/07 12:39:09;;;;;;;;;;;27.00;79.10;;;;;;6729289;88;20184;-81
2021/07/07 12:49:09;;;;;;;3.35;0.95;;;27.60;77.70;;;;;;6718040;88;20054;-80
2021/07/07 12:59:11;;;;;;;2.70;1.17;;;26.90;80.10;;;;;;6716412;88;20678;-81
2021/07/07 13:09:17;;;;;;;3.92;1.17;;;27.40;77.90;;;;;;6717371;88;20235;-82
2021/07/07 13:19:29;;;;;;;2.92;1.20;;;27.90;78.60;;;;;;6717980;88;20223;-81
2021/07/07 13:29:35;;;;;;;2.58;1.23;;;26.90;77.80;;;;;;6721067;88;20233;-81
2021/07/07 13:39:36;;;;;;;3.33;1.10;;;26.50;81.30;;;;;;6718597;88;20239;-81
2021/07/07 13:49:37;;;;;;;3.28;0.93;;;27.80;81.30;;;;;;6732119;88;20212;-80
2021/07/07 13:59:39;;;;;;;3.53;1.00;;;27.30;77.80;;;;;;6735049;88;20192;-81
2021/07/07 14:09:40;;;;;;;5.15;1.10;;;26.80;79.10;;;;;;6737099;88;20200;-81
2021/07/07 14:19:40;;;;;;;4.40;1.10;;;25.70;80.60;;;;;;6739615;88;20254;-82
2021/07/07 14:29:41;;;;;;;3.12;1.00;;;25.40;84.00;;;;;;6745772;88;20265;-82
2021/07/07 14:39:42;;;;;;;5.43;1.30;;;25.40;85.60;;;;;;6741389;88;20332;-81
2021/07/07 14:49:43;;;;;;;2.50;1.10;;;26.90;83.40;;;;;;6728001;88;20247;-78
2021/07/07 14:59:43;;;;;;;6.57;1.33;;;26.10;82.80;;;;;;6728688;88;20354;-80
2021/07/07 15:09:44;;;;;;;3.07;1.10;;;26.40;83.90;;;;;;6735361;88;20227;-79
2021/07/07 15:19:44;;;;;;;2.47;1.10;;;26.50;82.10;;;;;;6723928;88;20242;-79
2021/07/07 15:29:45;;;;;;;3.58;1.20;;;27.00;82.90;;;;;;6725176;88;20170;-80
2021/07/07 15:39:45;;;;;;;1.70;0.80;;;27.40;81.20;;;;;;6723053;88;20189;-79
2021/07/07 15:49:46;;;;;;;3.42;1.27;;;26.60;79.90;;;;;;6726910;88;20833;-79
2021/07/07 15:59:46;;;;;;;4.18;1.10;;;27.40;78.40;;;;;;6722975;88;20183;-81
2021/07/07 16:09:47;;;;;;;2.70;1.00;;;27.30;77.40;;;;;;6715890;88;20625;-78
2021/07/07 16:19:47;;;;;;;7.10;1.10;;;26.90;79.30;;;;;;6720335;78;20215;-80
2021/07/07 16:29:48;;;;;;;5.05;1.15;;;26.50;79.30;;;;;;6718628;88;20203;-79
2021/07/07 16:39:50;;;;;;;5.30;1.33;;;25.80;81.50;;;;;;6733333;88;20157;-82
2021/07/07 16:49:50;;;;;;;1.83;0.90;;;25.80;82.70;;;;;;6731038;88;20178;-79
2021/07/07 16:59:51;;;;;;;2.03;0.80;;;26.30;81.20;;;;;;6727782;88;20235;-79
2021/07/07 17:09:51;;;;;;;2.33;1.02;;;26.60;79.00;;;;;;6732555;88;20197;-80
2021/07/07 17:19:55;;;;;;;3.15;1.00;;;26.80;79.00;;;;;;6689777;88;20200;-80
2021/07/07 17:29:56;;;;;;;1.87;1.00;;;27.40;76.70;;;;;;6643780;89;20185;-82
2021/07/07 17:39:56;;;;;;;2.70;0.80;;;27.70;74.40;;;;;;6741560;88;20695;-83
2021/07/07 17:49:57;;;;;;;4.05;0.90;;;26.00;76.90;;;;;;6723228;88;20221;-78
2021/07/07 17:59:57;;;;;;;3.10;1.08;;;25.00;78.70;;;;;;6718558;88;21109;-78
2021/07/07 18:09:58;;;;;;;5.20;1.17;;;25.60;77.80;;;;;;6718050;88;20623;-79
2021/07/07 18:19:59;;;;;;;4.25;1.45;;;26.10;82.20;;;;;;6723281;88;20189;-78
2021/07/07 18:30:00;;;;;;;3.35;1.40;;;25.00;87.80;;;;;;6713874;88;20298;-78
2021/07/07 18:40:02;;;;;;;8.07;1.65;;;24.10;90.90;;;;;;6724041;88;20177;-78
2021/07/07 18:50:03;;;;;;;6.78;1.55;;;23.70;92.50;;;;;;6716041;88;20304;-77
2021/07/07 19:00:04;;;;;;;4.72;1.30;;;23.80;93.00;;;;;;6717028;88;20681;-77
2021/07/07 19:10:07;;;;;;;5.55;1.60;;;23.30;94.10;;;;;;6720799;88;20172;-82
2021/07/07 19:20:08;;;;;;;5.13;1.50;;;23.00;95.70;;;;;;6741283;88;20837;-80
2021/07/07 19:30:11;;;;;;;6.78;1.60;;;23.00;96.60;;;;;;6742418;88;20197;-80
2021/07/07 19:40:12;;;;;;;3.65;1.90;;;22.80;97.60;;;;;;6742896;88;20738;-79
2021/07/07 19:50:16;;;;;;;3.28;1.60;;;22.60;98.50;;;;;;6746435;88;20833;-79
2021/07/07 20:00:25;;;;;;;4.17;1.70;;;22.40;99.90;;;;;;6736685;88;20194;-79
2021/07/07 20:10:26;;;;;;;8.23;1.65;;;22.20;99.90;;;;;;6735401;88;20203;-81
2021/07/07 20:20:27;;;;;;;4.53;1.55;;;22.10;99.90;;;;;;6731982;88;20265;-79
2021/07/07 20:30:27;;;;;;;3.33;1.57;;;21.80;99.90;;;;;;6725426;88;20663;-79
2021/07/07 20:40:28;;;;;;;5.70;1.62;;;21.50;99.90;;;;;;6731212;88;20197;-79
2021/07/07 20:50:28;;;;;;;3.95;1.90;;;21.20;99.90;;;;;;6743334;88;20194;-79
2021/07/07 21:00:29;;;;;;;4.62;1.70;;;21.00;99.90;;;;;;6737736;88;20202;-80
2021/07/07 21:10:29;;;;;;;6.22;3.12;;;20.90;99.90;;;;;;6739768;88;20179;-80
2021/07/07 21:20:30;;;;;;;5.93;2.70;;;20.50;99.90;;;;;;6732279;88;20238;-79
2021/07/07 21:30:31;;;;;;;4.03;2.22;;;20.10;99.90;;;;;;6728547;88;20271;-80
2021/07/07 21:40:31;;;;;;;4.72;2.30;;;19.80;99.90;;;;;;6728249;88;20201;-81
2021/07/07 21:50:32;;;;;;;5.10;2.25;;;19.60;99.90;;;;;;6732655;88;20202;-79
2021/07/07 22:00:34;;;;;;;7.20;2.00;;;19.40;99.90;;;;;;6734137;88;20349;-77
2021/07/07 22:10:35;;;;;;;8.07;2.50;;;19.50;99.90;;;;;;6736275;88;20507;-79
2021/07/07 22:20:36;;;;;;;6.33;2.87;;;19.20;99.90;;;;;;6737827;88;20212;-80
2021/07/07 22:30:37;;;;;;;6.25;2.35;;;18.90;99.90;;;;;;6732992;88;20270;-81
2021/07/07 22:40:38;;;;;;;7.70;2.58;;;18.70;99.90;;;;;;6737622;88;20184;-79
2021/07/07 22:50:50;;;;;;;7.10;3.00;;;18.40;99.90;;;;;;6733554;88;20201;-82
2021/07/07 23:00:50;;;;;;;6.18;2.65;;;18.10;99.90;;;;;;6738175;88;20200;-80
2021/07/07 23:10:52;;;;;;;6.55;2.75;;;18.00;99.90;;;;;;6738325;88;20189;-82
2021/07/07 23:20:53;;;;;;;5.53;2.47;;;17.90;99.90;;;;;;6739592;88;21089;-80
2021/07/07 23:30:53;;;;;;;4.12;2.47;;;17.70;99.90;;;;;;6732610;88;20180;-80
2021/07/07 23:40:54;;;;;;;5.87;2.70;;;17.70;99.90;;;;;;6734544;88;20326;-79
2021/07/07 23:50:55;;;;;;;7.35;3.17;;;17.30;99.90;;;;;;6734062;88;20189;-79
